createdAt,value
2017-10-15T00:01:31.302Z,15.81
2017-10-15T00:03:58.703Z,15.81
2017-10-15T00:06:26.151Z,15.79
2017-10-15T00:08:54.785Z,15.79
2017-10-15T00:11:22.211Z,15.76
2017-10-15T00:13:49.606Z,15.72
2017-10-15T00:16:17.004Z,15.66
2017-10-15T00:18:44.441Z,15.62
2017-10-15T00:21:11.836Z,15.59
2017-10-15T00:23:39.255Z,15.53
2017-10-15T00:26:06.665Z,15.48
2017-10-15T00:28:34.082Z,15.45
2017-10-15T00:31:01.488Z,15.40
2017-10-15T00:33:28.905Z,15.36
2017-10-15T00:35:56.296Z,15.33
2017-10-15T00:38:23.694Z,15.30
2017-10-15T00:40:51.120Z,15.24
2017-10-15T00:43:18.516Z,15.20
2017-10-15T00:45:45.916Z,15.17
2017-10-15T00:48:13.318Z,15.13
2017-10-15T00:50:40.727Z,15.12
2017-10-15T00:53:08.158Z,15.08
2017-10-15T00:55:35.601Z,15.04
2017-10-15T00:58:03.025Z,15.01
2017-10-15T01:00:30.439Z,14.99
2017-10-15T01:02:57.868Z,14.97
2017-10-15T01:05:25.270Z,14.95
2017-10-15T01:07:52.699Z,14.93
2017-10-15T01:10:20.126Z,14.92
2017-10-15T01:12:47.543Z,14.93
2017-10-15T01:15:14.953Z,14.92
2017-10-15T01:17:42.360Z,14.92
2017-10-15T01:20:09.782Z,14.92
2017-10-15T01:22:37.209Z,14.90
2017-10-15T01:25:04.615Z,14.89
2017-10-15T01:27:32.031Z,14.88
2017-10-15T01:29:59.437Z,14.85
2017-10-15T01:32:27.580Z,14.85
2017-10-15T01:34:55.064Z,14.84
2017-10-15T01:37:22.812Z,14.84
2017-10-15T01:39:50.241Z,14.87
2017-10-15T01:42:17.643Z,14.86
2017-10-15T01:44:45.056Z,14.83
2017-10-15T01:47:12.570Z,14.80
2017-10-15T01:49:39.979Z,14.78
2017-10-15T01:52:08.098Z,14.76
2017-10-15T01:54:35.844Z,14.73
2017-10-15T01:57:03.235Z,14.73
2017-10-15T01:59:30.638Z,14.72
2017-10-15T02:01:58.061Z,14.74
2017-10-15T02:04:25.450Z,14.74
2017-10-15T02:06:52.871Z,14.75
2017-10-15T02:09:20.284Z,14.74
2017-10-15T02:11:47.693Z,14.73
2017-10-15T02:14:15.105Z,14.73
2017-10-15T02:16:42.500Z,14.72
2017-10-15T02:19:09.924Z,14.69
2017-10-15T02:21:37.831Z,14.68
2017-10-15T02:24:05.224Z,14.66
2017-10-15T02:26:32.644Z,14.65
2017-10-15T02:29:00.055Z,14.62
2017-10-15T02:31:27.457Z,14.62
2017-10-15T02:33:54.854Z,14.54
2017-10-15T02:36:22.268Z,14.46
2017-10-15T02:38:49.669Z,14.40
2017-10-15T02:41:17.457Z,14.30
2017-10-15T02:43:44.855Z,14.27
2017-10-15T02:46:12.253Z,14.20
2017-10-15T02:48:39.667Z,14.18
2017-10-15T02:51:07.064Z,14.16
2017-10-15T02:53:34.490Z,14.19
2017-10-15T02:56:01.890Z,14.18
2017-10-15T02:58:29.309Z,14.17
2017-10-15T03:00:56.703Z,14.17
2017-10-15T03:03:24.126Z,14.17
2017-10-15T03:05:51.526Z,14.18
2017-10-15T03:08:18.925Z,14.19
2017-10-15T03:10:46.338Z,14.18
2017-10-15T03:13:13.731Z,14.18
2017-10-15T03:15:41.137Z,14.20
2017-10-15T03:18:08.557Z,14.18
2017-10-15T03:20:36.321Z,14.21
2017-10-15T03:23:03.726Z,14.19
2017-10-15T03:25:31.128Z,14.20
2017-10-15T03:27:58.544Z,14.21
2017-10-15T03:30:25.946Z,14.19
2017-10-15T03:32:53.371Z,14.18
2017-10-15T03:35:21.624Z,14.18
2017-10-15T03:37:49.027Z,14.18
2017-10-15T03:40:16.426Z,14.15
2017-10-15T03:42:43.835Z,14.15
2017-10-15T03:45:11.255Z,14.14
2017-10-15T03:47:38.654Z,14.14
2017-10-15T03:50:06.425Z,14.13
2017-10-15T03:52:33.813Z,14.12
2017-10-15T03:55:01.214Z,14.11
2017-10-15T03:57:28.646Z,14.11
2017-10-15T03:59:56.045Z,14.11
2017-10-15T04:02:23.461Z,14.09
2017-10-15T04:04:50.869Z,14.06
2017-10-15T04:07:18.291Z,14.04
2017-10-15T04:09:45.692Z,14.03
2017-10-15T04:12:13.114Z,14.02
2017-10-15T04:14:40.525Z,14.00
2017-10-15T04:17:07.934Z,14.02
2017-10-15T04:19:35.341Z,14.00
2017-10-15T04:22:02.751Z,14.02
2017-10-15T04:24:30.178Z,14.00
2017-10-15T04:26:57.577Z,14.02
2017-10-15T04:29:24.987Z,13.99
2017-10-15T04:31:52.401Z,13.96
2017-10-15T04:34:19.809Z,13.93
2017-10-15T04:36:47.227Z,13.90
2017-10-15T04:39:14.629Z,13.86
2017-10-15T04:41:42.050Z,13.83
2017-10-15T04:44:09.450Z,13.81
2017-10-15T04:46:36.856Z,13.75
2017-10-15T04:49:04.267Z,13.72
2017-10-15T04:51:31.689Z,13.68
2017-10-15T04:53:59.101Z,13.66
2017-10-15T04:56:26.518Z,13.65
2017-10-15T04:58:53.915Z,13.64
2017-10-15T05:01:21.327Z,13.63
2017-10-15T05:03:48.753Z,13.63
2017-10-15T05:06:16.170Z,13.63
2017-10-15T05:08:43.583Z,13.63
2017-10-15T05:11:11.006Z,13.62
2017-10-15T05:13:38.415Z,13.64
2017-10-15T05:16:05.823Z,13.64
2017-10-15T05:18:33.243Z,13.63
2017-10-15T05:21:00.638Z,13.62
2017-10-15T05:23:28.040Z,13.61
2017-10-15T05:25:55.452Z,13.58
2017-10-15T05:28:22.881Z,13.56
2017-10-15T05:30:50.299Z,13.55
2017-10-15T05:33:17.689Z,13.54
2017-10-15T05:35:45.114Z,13.54
2017-10-15T05:38:12.521Z,13.54
2017-10-15T05:40:39.930Z,13.51
2017-10-15T05:43:07.703Z,13.52
2017-10-15T05:45:35.141Z,13.50
2017-10-15T05:48:02.573Z,13.49
2017-10-15T05:50:30.026Z,13.47
2017-10-15T05:52:57.418Z,13.47
2017-10-15T05:55:24.817Z,13.42
2017-10-15T05:57:52.237Z,13.37
2017-10-15T06:00:19.642Z,13.33
2017-10-15T06:02:47.064Z,13.31
2017-10-15T06:05:14.461Z,13.27
2017-10-15T06:07:41.948Z,13.23
2017-10-15T06:10:09.353Z,13.21
2017-10-15T06:12:36.769Z,13.21
2017-10-15T06:15:04.182Z,13.23
2017-10-15T06:17:31.600Z,13.24
2017-10-15T06:19:59.009Z,13.26
2017-10-15T06:22:26.413Z,13.28
2017-10-15T06:24:53.833Z,13.31
2017-10-15T06:27:21.254Z,13.35
2017-10-15T06:29:48.675Z,13.38
2017-10-15T06:32:16.098Z,13.40
2017-10-15T06:34:43.521Z,13.42
2017-10-15T06:37:10.925Z,13.42
2017-10-15T06:39:38.344Z,13.39
2017-10-15T06:42:05.748Z,13.36
2017-10-15T06:44:33.151Z,13.36
2017-10-15T06:47:00.560Z,13.35
2017-10-15T06:49:27.970Z,13.35
2017-10-15T06:51:55.391Z,13.35
2017-10-15T06:54:22.778Z,13.37
2017-10-15T06:56:50.230Z,13.41
2017-10-15T06:59:17.629Z,13.47
2017-10-15T07:01:45.074Z,13.50
2017-10-15T07:04:12.478Z,13.54
2017-10-15T07:06:39.877Z,13.58
2017-10-15T07:09:07.298Z,13.61
2017-10-15T07:11:34.696Z,13.63
2017-10-15T07:14:02.121Z,13.67
2017-10-15T07:16:29.523Z,13.70
2017-10-15T07:18:56.958Z,13.70
2017-10-15T07:21:24.372Z,13.71
2017-10-15T07:23:51.781Z,13.71
2017-10-15T07:26:19.205Z,13.74
2017-10-15T07:28:46.635Z,13.80
2017-10-15T07:31:14.038Z,13.87
2017-10-15T07:33:41.524Z,13.92
2017-10-15T07:36:08.945Z,13.94
2017-10-15T07:38:36.669Z,13.98
2017-10-15T07:41:04.134Z,14.01
2017-10-15T07:43:31.724Z,14.01
2017-10-15T07:45:59.139Z,14.01
2017-10-15T07:48:26.546Z,14.07
2017-10-15T07:50:53.981Z,14.09
2017-10-15T07:53:21.398Z,13.93
2017-10-15T07:55:48.820Z,13.95
2017-10-15T07:58:16.253Z,13.97
2017-10-15T08:00:43.678Z,13.99
2017-10-15T08:03:11.117Z,14.04
2017-10-15T08:05:38.572Z,14.07
2017-10-15T08:08:05.995Z,14.12
2017-10-15T08:10:33.414Z,14.19
2017-10-15T08:13:00.846Z,14.21
2017-10-15T08:15:28.265Z,14.26
2017-10-15T08:17:55.698Z,14.31
2017-10-15T08:20:23.420Z,14.31
2017-10-15T08:22:50.843Z,14.27
2017-10-15T08:25:18.272Z,14.12
2017-10-15T08:27:45.717Z,14.18
2017-10-15T08:30:13.141Z,14.27
2017-10-15T08:32:40.612Z,14.31
2017-10-15T08:35:08.065Z,14.28
2017-10-15T08:37:35.483Z,14.24
2017-10-15T08:40:02.918Z,14.26
2017-10-15T08:42:30.371Z,14.18
2017-10-15T08:44:57.788Z,14.17
2017-10-15T08:47:25.205Z,14.16
2017-10-15T08:49:52.653Z,14.16
2017-10-15T08:52:20.053Z,14.14
2017-10-15T08:54:47.475Z,14.00
2017-10-15T08:57:14.898Z,13.95
2017-10-15T08:59:42.346Z,13.93
2017-10-15T09:02:09.753Z,13.95
2017-10-15T09:04:37.218Z,13.99
2017-10-15T09:07:04.640Z,14.03
2017-10-15T09:09:32.053Z,14.00
2017-10-15T09:11:59.502Z,14.06
2017-10-15T09:14:27.045Z,14.09
2017-10-15T09:16:54.488Z,13.99
2017-10-15T09:19:21.907Z,14.05
2017-10-15T09:21:49.347Z,14.07
2017-10-15T09:24:16.766Z,14.02
2017-10-15T09:26:44.207Z,14.01
2017-10-15T09:29:11.674Z,14.07
2017-10-15T09:31:39.074Z,13.96
2017-10-15T09:34:06.546Z,13.99
2017-10-15T09:36:34.023Z,14.11
2017-10-15T09:39:01.485Z,14.16
2017-10-15T09:41:28.908Z,14.21
2017-10-15T09:43:56.370Z,14.02
2017-10-15T09:46:23.793Z,14.06
2017-10-15T09:48:51.246Z,14.14
2017-10-15T09:51:18.670Z,14.17
2017-10-15T09:53:46.089Z,14.24
2017-10-15T09:56:13.528Z,14.26
2017-10-15T09:58:40.945Z,14.35
2017-10-15T10:01:08.670Z,14.41
2017-10-15T10:03:36.084Z,14.42
2017-10-15T10:06:03.516Z,14.17
2017-10-15T10:08:30.937Z,14.06
2017-10-15T10:10:58.361Z,13.97
2017-10-15T10:13:25.790Z,13.98
2017-10-15T10:15:53.229Z,14.08
2017-10-15T10:18:20.658Z,14.02
2017-10-15T10:20:48.413Z,14.09
2017-10-15T10:23:15.872Z,14.13
2017-10-15T10:25:43.629Z,14.19
2017-10-15T10:28:11.054Z,14.15
2017-10-15T10:30:38.477Z,14.10
2017-10-15T10:33:05.907Z,14.04
2017-10-15T10:35:33.318Z,14.11
2017-10-15T10:38:00.764Z,14.14
2017-10-15T10:40:28.162Z,14.11
2017-10-15T10:42:55.604Z,14.21
2017-10-15T10:45:23.040Z,14.28
2017-10-15T10:47:50.462Z,14.40
2017-10-15T10:50:17.882Z,14.38
2017-10-15T10:52:45.337Z,14.46
2017-10-15T10:55:13.114Z,14.48
2017-10-15T10:57:40.599Z,14.52
2017-10-15T11:00:08.020Z,14.64
2017-10-15T11:02:35.445Z,14.69
2017-10-15T11:05:02.884Z,14.78
2017-10-15T11:07:30.397Z,14.88
2017-10-15T11:09:57.841Z,14.89
2017-10-15T11:12:25.278Z,15.02
2017-10-15T11:14:52.722Z,15.01
2017-10-15T11:17:20.189Z,15.13
2017-10-15T11:19:47.616Z,15.19
2017-10-15T11:22:15.024Z,15.30
2017-10-15T11:24:42.458Z,15.37
2017-10-15T11:27:09.873Z,15.41
2017-10-15T11:29:37.310Z,15.49
2017-10-15T11:32:04.755Z,15.47
2017-10-15T11:34:32.173Z,15.47
2017-10-15T11:36:59.619Z,15.44
2017-10-15T11:39:27.029Z,15.44
2017-10-15T11:41:54.448Z,15.55
2017-10-15T11:44:21.896Z,15.65
2017-10-15T11:46:49.302Z,15.71
2017-10-15T11:49:16.729Z,15.71
2017-10-15T11:51:44.157Z,15.73
2017-10-15T11:54:11.577Z,15.81
2017-10-15T11:56:39.011Z,15.90
2017-10-15T11:59:06.484Z,15.97
2017-10-15T12:01:33.939Z,16.06
2017-10-15T12:04:01.339Z,16.12
2017-10-15T12:06:28.853Z,16.18
2017-10-15T12:08:56.264Z,16.25
2017-10-15T12:11:24.127Z,16.24
2017-10-15T12:13:51.634Z,16.29
2017-10-15T12:16:19.888Z,16.35
2017-10-15T12:18:47.395Z,16.42
2017-10-15T12:21:14.869Z,16.45
2017-10-15T12:23:42.313Z,16.51
2017-10-15T12:26:09.768Z,16.64
2017-10-15T12:28:37.172Z,16.66
2017-10-15T12:31:04.662Z,16.76
2017-10-15T12:33:32.100Z,16.79
2017-10-15T12:35:59.543Z,16.85
2017-10-15T12:38:26.959Z,16.89
2017-10-15T12:40:54.685Z,16.82
2017-10-15T12:43:22.092Z,16.82
2017-10-15T12:45:49.550Z,16.79
2017-10-15T12:48:16.966Z,16.79
2017-10-15T12:50:44.392Z,16.77
2017-10-15T12:53:11.839Z,16.76
2017-10-15T12:55:39.278Z,16.78
2017-10-15T12:58:06.710Z,16.85
2017-10-15T13:00:34.169Z,16.82
2017-10-15T13:03:01.608Z,16.87
2017-10-15T13:05:29.027Z,17.02
2017-10-15T13:07:56.425Z,17.28
2017-10-15T13:10:23.912Z,17.44
2017-10-15T13:12:51.314Z,17.53
2017-10-15T13:15:18.750Z,17.57
2017-10-15T13:17:46.163Z,17.61
2017-10-15T13:20:13.595Z,17.70
2017-10-15T13:22:41.069Z,17.73
2017-10-15T13:25:08.517Z,17.78
2017-10-15T13:27:35.947Z,17.81
2017-10-15T13:30:03.368Z,18.13
2017-10-15T13:32:30.827Z,18.63
2017-10-15T13:34:58.254Z,19.10
2017-10-15T13:37:25.796Z,19.56
2017-10-15T13:39:53.203Z,20.06
2017-10-15T13:42:20.621Z,20.48
2017-10-15T13:44:48.093Z,20.83
2017-10-15T13:47:15.520Z,20.97
2017-10-15T13:49:42.951Z,21.29
2017-10-15T13:52:10.391Z,21.53
2017-10-15T13:54:37.890Z,21.70
2017-10-15T13:57:05.314Z,21.83
2017-10-15T13:59:32.760Z,21.88
2017-10-15T14:02:00.294Z,21.92
2017-10-15T14:04:27.741Z,21.96
2017-10-15T14:06:55.207Z,21.93
2017-10-15T14:09:22.646Z,21.88
2017-10-15T14:11:50.210Z,21.75
2017-10-15T14:14:17.634Z,21.65
2017-10-15T14:16:45.590Z,21.48
2017-10-15T14:19:12.998Z,21.31
2017-10-15T14:21:40.444Z,21.06
2017-10-15T14:24:07.910Z,20.87
2017-10-15T14:26:35.365Z,20.57
2017-10-15T14:29:02.795Z,20.27
2017-10-15T14:31:30.255Z,19.93
2017-10-15T14:33:57.729Z,19.68
2017-10-15T14:36:25.178Z,19.42
2017-10-15T14:38:52.626Z,19.25
2017-10-15T14:41:20.080Z,19.14
2017-10-15T14:43:47.518Z,19.02
2017-10-15T14:46:14.951Z,18.91
2017-10-15T14:48:42.457Z,18.73
2017-10-15T14:51:09.909Z,18.67
2017-10-15T14:53:37.335Z,18.53
2017-10-15T14:56:04.761Z,18.44
2017-10-15T14:58:32.196Z,18.38
2017-10-15T15:00:59.993Z,18.27
2017-10-15T15:03:27.415Z,18.18
2017-10-15T15:05:54.874Z,18.15
2017-10-15T15:08:22.313Z,18.11
2017-10-15T15:10:49.715Z,18.09
2017-10-15T15:13:17.927Z,18.03
2017-10-15T15:15:45.334Z,17.99
2017-10-15T15:18:12.762Z,17.96
2017-10-15T15:20:40.189Z,17.87
2017-10-15T15:23:07.653Z,17.81
2017-10-15T15:25:35.135Z,17.73
2017-10-15T15:28:02.562Z,17.71
2017-10-15T15:30:30.012Z,17.66
2017-10-15T15:32:57.529Z,17.56
2017-10-15T15:35:25.318Z,17.50
2017-10-15T15:37:52.745Z,17.48
2017-10-15T15:40:20.180Z,17.39
2017-10-15T15:42:47.607Z,17.33
2017-10-15T15:45:15.073Z,17.24
2017-10-15T15:47:42.554Z,17.17
2017-10-15T15:50:10.059Z,17.10
2017-10-15T15:52:37.546Z,17.06
2017-10-15T15:55:04.997Z,17.03
2017-10-15T15:57:32.475Z,17.01
2017-10-15T15:59:59.952Z,16.98
2017-10-15T16:02:27.439Z,16.97
2017-10-15T16:04:54.884Z,16.92
2017-10-15T16:07:22.349Z,16.87
2017-10-15T16:09:49.833Z,16.80
2017-10-15T16:12:17.246Z,16.73
2017-10-15T16:14:44.974Z,16.62
2017-10-15T16:17:12.386Z,16.54
2017-10-15T16:19:39.888Z,16.47
2017-10-15T16:22:07.360Z,16.38
2017-10-15T16:24:34.818Z,16.31
2017-10-15T16:27:02.270Z,16.23
2017-10-15T16:29:29.704Z,16.19
2017-10-15T16:31:57.211Z,16.10
2017-10-15T16:34:24.676Z,16.01
2017-10-15T16:36:52.100Z,15.93
2017-10-15T16:39:19.905Z,15.89
2017-10-15T16:41:47.374Z,15.84
2017-10-15T16:44:15.635Z,15.76
2017-10-15T16:46:43.147Z,15.69
2017-10-15T16:49:10.597Z,15.62
2017-10-15T16:51:38.008Z,15.59
2017-10-15T16:54:05.444Z,15.52
2017-10-15T16:56:32.891Z,15.48
2017-10-15T16:59:00.284Z,15.44
2017-10-15T17:01:27.775Z,15.40
2017-10-15T17:03:55.245Z,15.35
2017-10-15T17:06:22.668Z,15.32
2017-10-15T17:08:50.101Z,15.27
2017-10-15T17:11:17.586Z,15.24
2017-10-15T17:13:45.058Z,15.20
2017-10-15T17:16:12.535Z,15.18
2017-10-15T17:18:39.998Z,15.16
2017-10-15T17:21:07.431Z,15.13
2017-10-15T17:23:34.902Z,15.09
2017-10-15T17:26:02.347Z,15.06
2017-10-15T17:28:29.797Z,15.03
2017-10-15T17:30:57.231Z,14.97
2017-10-15T17:33:24.645Z,14.93
2017-10-15T17:35:52.069Z,14.92
2017-10-15T17:38:19.543Z,14.92
2017-10-15T17:40:46.954Z,14.92
2017-10-15T17:43:14.379Z,14.92
2017-10-15T17:45:41.804Z,14.90
2017-10-15T17:48:09.610Z,14.88
2017-10-15T17:50:37.072Z,14.84
2017-10-15T17:53:04.553Z,14.86
2017-10-15T17:55:31.986Z,14.82
2017-10-15T17:57:59.497Z,14.81
2017-10-15T18:00:26.948Z,14.80
2017-10-15T18:02:54.404Z,14.83
2017-10-15T18:05:21.911Z,14.84
2017-10-15T18:07:49.566Z,14.83
2017-10-15T18:10:17.005Z,14.85
2017-10-15T18:12:44.490Z,14.83
2017-10-15T18:15:12.535Z,14.82
2017-10-15T18:17:40.048Z,14.84
2017-10-15T18:20:07.476Z,14.80
2017-10-15T18:22:34.961Z,14.81
2017-10-15T18:25:02.395Z,14.81
2017-10-15T18:27:29.825Z,14.82
2017-10-15T18:29:57.284Z,14.82
2017-10-15T18:32:24.758Z,14.83
2017-10-15T18:34:52.216Z,14.84
2017-10-15T18:37:19.643Z,14.83
2017-10-15T18:39:47.058Z,14.84
2017-10-15T18:42:14.485Z,14.83
2017-10-15T18:44:41.962Z,14.83
2017-10-15T18:47:09.688Z,14.84
2017-10-15T18:49:37.147Z,14.84
2017-10-15T18:52:04.570Z,14.83
2017-10-15T18:54:31.998Z,14.85
2017-10-15T18:56:59.414Z,14.86
2017-10-15T18:59:26.875Z,14.87
2017-10-15T19:01:54.303Z,14.89
2017-10-15T19:04:21.734Z,14.87
2017-10-15T19:06:49.182Z,14.84
2017-10-15T19:09:16.675Z,14.82
2017-10-15T19:11:44.488Z,14.77
2017-10-15T19:14:11.914Z,14.71
2017-10-15T19:16:39.326Z,14.72
2017-10-15T19:19:06.780Z,14.69
2017-10-15T19:21:34.193Z,14.72
2017-10-15T19:24:01.806Z,14.70
2017-10-15T19:26:29.230Z,14.68
2017-10-15T19:28:56.758Z,14.65
2017-10-15T19:31:24.255Z,14.61
2017-10-15T19:33:51.716Z,14.57
2017-10-15T19:36:19.164Z,14.50
2017-10-15T19:38:46.610Z,14.50
2017-10-15T19:41:14.068Z,14.53
2017-10-15T19:43:41.665Z,14.56
2017-10-15T19:46:09.175Z,14.57
2017-10-15T19:48:36.624Z,14.57
2017-10-15T19:51:04.061Z,14.58
2017-10-15T19:53:31.537Z,14.61
2017-10-15T19:55:58.964Z,14.65
2017-10-15T19:58:26.415Z,14.69
2017-10-15T20:00:53.886Z,14.77
2017-10-15T20:03:21.314Z,14.79
2017-10-15T20:05:48.740Z,14.78
2017-10-15T20:08:16.174Z,14.84
2017-10-15T20:10:43.647Z,14.87
2017-10-15T20:13:11.085Z,14.86
2017-10-15T20:15:38.526Z,14.95
2017-10-15T20:18:05.957Z,14.94
2017-10-15T20:20:34.908Z,15.00
2017-10-15T20:23:02.359Z,15.02
2017-10-15T20:25:29.780Z,15.04
2017-10-15T20:27:57.208Z,15.07
2017-10-15T20:30:24.664Z,15.09
2017-10-15T20:32:52.059Z,15.12
2017-10-15T20:35:19.520Z,15.11
2017-10-15T20:37:46.946Z,15.10
2017-10-15T20:40:14.432Z,15.06
2017-10-15T20:42:41.881Z,15.03
2017-10-15T20:45:09.333Z,15.01
2017-10-15T20:47:36.791Z,15.00
2017-10-15T20:50:04.596Z,15.06
2017-10-15T20:52:32.078Z,15.06
2017-10-15T20:54:59.520Z,15.06
2017-10-15T20:57:26.940Z,15.09
2017-10-15T20:59:54.363Z,15.10
2017-10-15T21:02:21.814Z,15.14
2017-10-15T21:04:49.470Z,15.15
2017-10-15T21:07:16.921Z,15.13
2017-10-15T21:09:44.329Z,15.15
2017-10-15T21:12:11.794Z,15.13
2017-10-15T21:14:39.234Z,15.11
2017-10-15T21:17:06.641Z,15.09
2017-10-15T21:19:34.074Z,15.08
2017-10-15T21:22:01.502Z,15.07
2017-10-15T21:24:28.979Z,15.07
2017-10-15T21:26:56.409Z,15.07
2017-10-15T21:29:23.844Z,15.10
2017-10-15T21:31:51.254Z,15.12
2017-10-15T21:34:18.737Z,15.12
2017-10-15T21:36:46.139Z,15.09
2017-10-15T21:39:13.585Z,15.07
2017-10-15T21:41:41.025Z,15.06
2017-10-15T21:44:08.467Z,15.04
2017-10-15T21:46:35.890Z,15.02
2017-10-15T21:49:03.322Z,14.99
2017-10-15T21:51:30.753Z,14.96
2017-10-15T21:53:58.158Z,14.96
2017-10-15T21:56:25.596Z,14.95
2017-10-15T21:58:53.009Z,14.94
2017-10-15T22:01:20.417Z,14.94
2017-10-15T22:03:47.854Z,14.97
2017-10-15T22:06:15.273Z,14.96
2017-10-15T22:08:42.697Z,14.92
2017-10-15T22:11:10.103Z,14.96
2017-10-15T22:13:37.538Z,14.99
2017-10-15T22:16:04.958Z,15.03
2017-10-15T22:18:38.466Z,15.05
2017-10-15T22:21:11.351Z,15.07
2017-10-15T22:23:38.779Z,15.07
2017-10-15T22:26:06.174Z,15.10
2017-10-15T22:28:33.593Z,15.08
2017-10-15T22:31:01.035Z,15.09
2017-10-15T22:33:28.483Z,15.08
2017-10-15T22:35:55.946Z,15.05
2017-10-15T22:38:23.376Z,15.02
2017-10-15T22:40:50.801Z,15.00
2017-10-15T22:43:18.227Z,14.98
2017-10-15T22:45:45.675Z,14.91
2017-10-15T22:48:13.124Z,14.86
2017-10-15T22:50:40.526Z,14.83
2017-10-15T22:53:07.961Z,14.80
2017-10-15T22:55:35.398Z,14.73
2017-10-15T22:58:02.872Z,14.71
2017-10-15T23:00:30.294Z,14.67
2017-10-15T23:02:57.768Z,14.63
2017-10-15T23:05:25.217Z,14.60
2017-10-15T23:07:52.623Z,14.52
2017-10-15T23:10:20.360Z,14.47
2017-10-15T23:12:47.787Z,14.47
2017-10-15T23:15:15.188Z,14.39
2017-10-15T23:17:42.649Z,14.31
2017-10-15T23:20:10.068Z,14.22
2017-10-15T23:22:37.488Z,14.11
2017-10-15T23:25:04.902Z,14.12
2017-10-15T23:27:32.366Z,14.12
2017-10-15T23:29:59.780Z,13.99
2017-10-15T23:32:27.222Z,13.93
2017-10-15T23:34:54.642Z,13.85
2017-10-15T23:37:22.038Z,13.80
2017-10-15T23:39:49.494Z,13.77
2017-10-15T23:42:16.918Z,13.90
2017-10-15T23:44:44.354Z,13.90
2017-10-15T23:47:11.764Z,13.81
2017-10-15T23:49:39.243Z,13.80
2017-10-15T23:52:06.682Z,13.79
2017-10-15T23:54:34.111Z,13.78
2017-10-15T23:57:01.578Z,13.85
2017-10-15T23:59:28.998Z,13.90
